Aeropuerto Internacional "Miguel Hidalgo y Costilla" (GDL/MMGL)

Edgar Castro

Super Moderator
Que tal a todos.
Hoy se inauguro la ruta de carga por parte de Emirates SkyCargo con 2 frecuencias semanales.

Comparto el video de la bienvenida en Guadalajara.

No estoy seguro si publique bien el video, si no lo hice bien podrian apoyarme a publicarlo de manera correcta.

Saludos y Gracias.

Enhorabuena para MMGL!

Este aeropuerto continúa creciendo como uno de los principales puntos de carga en México.

Saben de donde llega y a donde sale este vuelo de Emirates SkyCargo?
 

kik

Well-Known Member
Para impulsar el turismo, Volaris ofrecerá vuelos desde 300 pesos con destino o salida desde Jalisco, sin incluir TUA.

Para ayudar a la recuperación del turismo en Jalisco, Volaris ofrecerá vuelos desde 300 pesos con destino o salida desde la entidad, sin incluir la Tarifa de Uso de Aeropuerto, vigente al 31 de diciembre.

"Hoy más que nunca tenemos que bajar los precios, entonces de aquí al 31 de diciembre tendremos casi 700 mil asientos disponibles que podemos bajar en prácticamente 20 por ciento, termina siendo un boleto de menos de 300 pesos por segmento", anunció Enrique Beltranena, CEO de Volaris.

Agregó que para fomentar los viajes a Puerto Vallarta, donde la aerolínea concentra 73 por ciento de los vuelos, ofrecerán a los hoteleros del destino 14 mil vouchers de mil pesos cada uno para que armen paquetes atractivos.

Para seguimiento a la promoción el siguiente año, ofrecerán hasta octubre de 2021 otros 400 mil asientos con tarifa de 89 dólares, es decir, alrededor de 1,896 pesos ya con impuestos.

"Cuando hablamos con las áreas de turismo y de promoción del Estado nos dijeron no nos da tiempo, no podemos vender 699 mil asientos de aquí a diciembre, qué nos puedes dar para el año siguiente, entonces hicimos lo mismo y levantamos 400 mil asientos con tarifas de 89 dólares en viaje sencillo con impuestos incluidos hasta octubre de 202", explicó.

Volaris tiene 142 rutas activas desde Jalisco, 99 domésticas y 43 internacionales, y concentra 47 por ciento de los vuelos que parten de la entidad.

Las promociones se suman a las de la Alianza Centro Occidente por el Turismo y a la campaña Jalisco a tu Alcance, que incluye noches al 3x2 en 138 hoteles y alimentos al 4x3 para turistas en casi 100 restaurantes con vigencia al 25 de diciembre.

fuente y link: https://busquedas.gruporeforma.com/elnorte/Documento/Web.aspx?id=4308445|ArticulosCMS&url=https://img.gruporeforma.com/imagenes/ElementoRelacionado/10/114/9113580.jpg&text=aerolinea+&tit=
 

Guajolojet

Well-Known Member
Para impulsar el turismo, Volaris ofrecerá vuelos desde 300 pesos con destino o salida desde Jalisco, sin incluir TUA.

Para ayudar a la recuperación del turismo en Jalisco, Volaris ofrecerá vuelos desde 300 pesos con destino o salida desde la entidad, sin incluir la Tarifa de Uso de Aeropuerto, vigente al 31 de diciembre.

"Hoy más que nunca tenemos que bajar los precios, entonces de aquí al 31 de diciembre tendremos casi 700 mil asientos disponibles que podemos bajar en prácticamente 20 por ciento, termina siendo un boleto de menos de 300 pesos por segmento", anunció Enrique Beltranena, CEO de Volaris.

Agregó que para fomentar los viajes a Puerto Vallarta, donde la aerolínea concentra 73 por ciento de los vuelos, ofrecerán a los hoteleros del destino 14 mil vouchers de mil pesos cada uno para que armen paquetes atractivos.

Para seguimiento a la promoción el siguiente año, ofrecerán hasta octubre de 2021 otros 400 mil asientos con tarifa de 89 dólares, es decir, alrededor de 1,896 pesos ya con impuestos.

"Cuando hablamos con las áreas de turismo y de promoción del Estado nos dijeron no nos da tiempo, no podemos vender 699 mil asientos de aquí a diciembre, qué nos puedes dar para el año siguiente, entonces hicimos lo mismo y levantamos 400 mil asientos con tarifas de 89 dólares en viaje sencillo con impuestos incluidos hasta octubre de 202", explicó.

Volaris tiene 142 rutas activas desde Jalisco, 99 domésticas y 43 internacionales, y concentra 47 por ciento de los vuelos que parten de la entidad.

Las promociones se suman a las de la Alianza Centro Occidente por el Turismo y a la campaña Jalisco a tu Alcance, que incluye noches al 3x2 en 138 hoteles y alimentos al 4x3 para turistas en casi 100 restaurantes con vigencia al 25 de diciembre.

fuente y link: https://busquedas.gruporeforma.com/elnorte/Documento/Web.aspx?id=4308445|ArticulosCMS&url=https://img.gruporeforma.com/imagenes/ElementoRelacionado/10/114/9113580.jpg&text=aerolinea+&tit=
paga el TUA, paga tu maletita que por 1 cm te cobran te la cobran para ir abajo, entonces ya te salio el boleto igual que Aeromexico, cual es el beneficio de volar en una empresa de bajo costo.
 

Jwong

Active Member
¿Alguien sabe que pasó esta mañana que desviaron como 5 vuelos?
Pobre de la tripulación de Qatar, los ponen en patrón de espera y los regresan a MEX
 

MayerFM

Well-Known Member
¿Alguien sabe que pasó esta mañana que desviaron como 5 vuelos?
Hola, Jwong. Seguramente mal tiempo (visibilidad reducida por niebla), así están los METAR de esta mañana en GDL:

MMGL 181543Z 00000KT 2 1/2SM HZ BKN015 20/16 A3026 RMK 8/500
MMGL 181504Z 00000KT 1SM BR OVC008 18/15 A3025 RMK 8/6//
MMGL 181445Z 28003KT 1/2SM FG VV003 17/15 A3025 RMK SLP142 52013 968 8////
MMGL 181403Z 00000KT 1/4SM FG VV005 16/14 A3022 RMK 8////
MMGL 181345Z 00000KT 1/2SM FG BKN005 OVC008 16/14 A3022 RMK 8/6//
MMGL 181325Z 00000KT 1/2SM FG OVC008 16/14 A3022 RMK 8/6//
MMGL 181257Z 00000KT 1SM BR SCT005 OVC010 15/12 A3021 RMK 8/6//
MMGL 181246Z 00000KT 1/2SM FG SCT005 OVC010 15/12 A3021 RMK 8/6//
MMGL 181236Z 00000KT 1/2SM FG OVC008 15/12 A3021 RMK 8/6//
MMGL 181211Z 00000KT 3SM BR HZ SCT005 BKN010 14/12 A3020 RMK 8/500

Saludos.
 

Jwong

Active Member
Hola, Jwong. Seguramente mal tiempo (visibilidad reducida por niebla), así están los METAR de esta mañana en GDL:

MMGL 181543Z 00000KT 2 1/2SM HZ BKN015 20/16 A3026 RMK 8/500
Saludos.
Muchísimas gracias
No se me ocurrió que pudiera ser por clima, me imaginaba algún percance en pistas

Muy amable
 

P-51

Well-Known Member
Interesante visitante, siempre es un gusto verlo en MMGL.

Me pregunto si la pista de Aguascalientes no será suficiente para recibir al Antonov 124? o tal ves el problema sea el espacio en plataforma...
Estimado Edgar, recibe un cordial saludo de mi parte . Muy interesante el cuestionamiento que señalas , en el caso del AN-124 y el PCN del apto de AGS es el siguiente :

Pista 18/36 : PCN 68/F/A/X/T
АН-124 : para este tipo de pavimento , tomando en cuenta el ACN para su masa máxima de operación de 408 tons , da un ACN de 40, por lo que si puede operar en la pista , sin embargo , habría que ver las calles de rodaje y/o la plataforma del aeropuerto ( tomando como la norma común de los aptos de México , que la aeronave crítica es un 747-400, el ACN de este avión es 57, por lo que de hecho es menor el ACN del Aн-124 que el del 747-400, por lo que el peso no sería un factor , lo que si podría ser la envergadura ).

Espero haya sido de tu agrado la explicación , y cualquier comentario es más que bienvenido , todos aprendemos de todos .

saludos !
 

Paco_1973

Member
Buena tarde estimados,

En este momento en flightradar24.com muestra el vuelo TOM8431 cubriendo la ruta LGW-GDL, tienen información sobre esta visita?
No tengo información, pero con este vuelo es el 3o que me doy cuenta, los 2 anteriores llegaron de Manchester y ahora este de Londres Gatwick. Cuál será el propósito?
 

D15MXA

New Member
No tengo información, pero con este vuelo es el 3o que me doy cuenta, los 2 anteriores llegaron de Manchester y ahora este de Londres Gatwick. Cuál será el propósito?
Al parecer hay cuatro aviones de Thompson Airlines haciendo vuelos triangulares entre ATL, STR y LGW y hubo tres vuelos que incluyeron a GDL, seran de carga? Vacunas? AstraZeneca esta en Cambridge y BioNtech en Mainz
 

Jorge Martinez

Administrator
Al parecer hay cuatro aviones de Thompson Airlines haciendo vuelos triangulares entre ATL, STR y LGW y hubo tres vuelos que incluyeron a GDL, seran de carga? Vacunas? AstraZeneca esta en Cambridge y BioNtech en Mainz
Dudo sean vacunas. En el caso de AstraZeneca, tienen plantas en varias partes del mundo. Cambridge es solo uno de muchísimos centros de investigación (sobretodo por la actividad académica) y producción de medicamentos (en mucha menor medida).

La vacuna de COVID en UK se produce en Shropshire (mucho más cerca de Birmingham o Manchester). Aún si hubiera producción en Cambridge, no tiene sentido mandar la vacuna a LGW (al lado opuesto de Londres) cuando STN o LTN están a menos de 30 minutos por carretera (STN es base de Fedex y tiene capacidad de sobra para mover cualquier tipo de carga). Incluso LHR está más cerca que LGW.

Ahora, TUI no está operando vuelos de pasajeros desde UK desde que empezamos la última cuarentena, pero es posible estén rentando aviones en esquemas parecidos al ACMI a otros operadores. No me soprendería estén moviendo carga que posiblemente incluya materias primas para las vacunas. Si revisamos, volar de UK a EEUU está prácticamente prohibido (solo ciudadanos de EEUU o sus residentes pueden hacerlo), sobretodo a partir de que se identificó la variante originada en UK.

Además, no olvidemos que hay varias farmacéuticas (como Johnson & Johnson) que están en pruebas fase 3, pero que ya tienen millones de vacunas listas para distrubuirse. Es posible que estén moviendo sus vacunas a puntos de distribución para que, apenas se aprueben, puedan entregarlas a las autoridades que las compraron.
 

Manuel - A320

Well-Known Member
A ver, ya me dio curiosidad. Encontré una pista:

https://www.aerotelegraph.com/tui-british-airways-dreamliner-stosszeit-in-stuttgart

Usando la traducción de google, dice:

Los destinos del Dreamliner son Detroit, Guadalajara y Atlanta. Según el aeropuerto, hay principalmente mercancías a bordo de los sectores de la automoción y la ingeniería mecánica, que están tan fuertemente representados en Baden-Württemberg como en los destinos de América del Norte. Sin embargo, los aviones de Tui Airways y British Airways no pueden volar directamente a Estados Unidos y México. Debido al Brexit, tienen que hacer escala en el Reino Unido.
 

Jorge Martinez

Administrator
A ver, ya me dio curiosidad. Encontré una pista:

https://www.aerotelegraph.com/tui-british-airways-dreamliner-stosszeit-in-stuttgart

Usando la traducción de google, dice:

Los destinos del Dreamliner son Detroit, Guadalajara y Atlanta. Según el aeropuerto, hay principalmente mercancías a bordo de los sectores de la automoción y la ingeniería mecánica, que están tan fuertemente representados en Baden-Württemberg como en los destinos de América del Norte. Sin embargo, los aviones de Tui Airways y British Airways no pueden volar directamente a Estados Unidos y México. Debido al Brexit, tienen que hacer escala en el Reino Unido.
Creo que le diste al clavo. Si son aviones registrados en UK (matrícula G) y/o operados para una aerolínea británica, no hay 5a libertad para volar de la Unión Europea a EEUU. Así que tienen que hacer escala en UK. Y con eso tiene sentido lo hagan en sus bases (LGW, por ejemplo).
 

kik

Well-Known Member


Aeropuerto de Guadalajara instala laboratorio de pruebas PCR

Guadalajara / 27.01.2021 18:18:05

Miguel vive en Las Vegas. Vino de vacaciones a Guadalajara, y un día antes de viajar de regreso se realizó la prueba de coronavirus, que salió negativa. Aún no sabe qué le dirán las autoridades al llegar a Estados Unidos, pues su regulación se endureció y ahora, probablemente, tendrá que estar en cuarentena 15 días.

Esta nueva medida obligó a Grupo Aeroportuario del Pacifico a contratar los servicios de un laboratorio químico para procesar pruebas covid-19. Víctor Sánchez, químico encargado del área de patología, informó que el laboratorio instalado en el estacionamiento de la terminal aérea Miguel Hidalgo puede procesar casi dos mil muestras por día.

"Nosotros al día podríamos procesar alrededor de mil 700 muestras; ya con la plantilla completa, calculando los picos máximos y el movimiento del aeropuerto, sí tendríamos esta capacidad para poder procesar las muestras", señaló.

En el laboratorio trabajan 10 recepcionistas, 20 personas para la toma de muestra y 15 químicos. Se realizan dos tipos de examen: la prueba de antígeno y la PCR, ésta última tarda en ser procesada al menos 24 horas.

La prueba PCR tiene un precio de mil 450 pesos para pasajero internacional y mil 950 para público en general, mientras que la de antígeno cuesta 450 y es suficiente para viajar a Estados Unidos.

fuente y link: https://www.milenio.com/politica/comunidad/coronavirus-jalisco-aeropuerto-gdl-instala-laboratorio-pruebas
 

kik

Well-Known Member
El Aeropuerto Internacional de Guadalajara habría alcanzado en marzo un flujo de 800 mil pasajeros, alrededor de 40% más que en febrero.

Poco a poco el flujo de pasajeros en el Aeropuerto Internacional de Guadalajara se recupera.

La terminal aérea espera haber alcanzado en marzo un flujo de 800 mil pasajeros, lo que representa alrededor de 40 por ciento más que en febrero, informó Martín Zazueta, director del Aeropuerto.

El flujo de viajeros se vio influenciado por las vacaciones de Semana Santa.

"Eso nos va a dar un promedio aproximado de 25 mil pasajeros diarios, que si los comparamos contra el cierre de febrero, el mes va a tener un incremento de alrededor de 40 por ciento de pasajeros", añadió el directivo.

"Es importante el tráfico que representaría si lo comparamos contra tráfico de 2019, estamos sobre 65 por ciento de esos tráficos", agregó.

Señaló que en meses anteriores se habían tenido alrededor de 250 vuelos diarios y actualmente son entre 300 y 350, aunque han consolidado su ocupación.

"Tenemos un incremento, pero básicamente, el factor importante es que la ocupación de vuelos se ha incrementado, lo que quiero decir con esto es que las aerolíneas están consolidando frecuencias a efecto también de ser más rentables... quiere decir que los vuelos van más llenos, hace más rentable a la aerolínea y hace que sea financieramente viable", destacó Zazueta.

Agregó que la terminal aérea cuenta con todas las medidas de prevención contra el Covid-19 y que también realizan exámenes de antígenos y PCR para los pasajeros que vuelan a Estados Unidos y otros destinos que requieren pruebas negativas a su ingreso.

Grupo REFORMA publicó el 10 de diciembre que el aeropuerto tapatío espera recuperar el flujo de pasajeros que se tenía en 2019 hasta el 2023.

fuente y link: https://busquedas.gruporeforma.com/elnorte/Documento/Web.aspx?id=4484148|ArticulosCMS&url=https://img.gruporeforma.com/imagenes/ElementoRelacionado/10/398/9397999.jpg&text=aerolinea&tit=
 
Arriba